createdAt,value
2023-02-01T00:01:44.342Z,5.07
2023-02-01T00:04:46.663Z,7.72
2023-02-01T00:07:50.174Z,9.40
2023-02-01T00:11:02.955Z,9.60
2023-02-01T00:14:05.623Z,9.10
2023-02-01T00:17:08.266Z,7.57
2023-02-01T00:20:11.328Z,7.70
2023-02-01T00:23:13.651Z,6.60
2023-02-01T00:26:21.495Z,8.35
2023-02-01T00:29:23.968Z,6.75
2023-02-01T00:32:27.635Z,4.90
2023-02-01T00:35:29.980Z,5.97
2023-02-01T00:38:34.228Z,5.43
2023-02-01T00:41:38.068Z,5.63
2023-02-01T00:44:40.492Z,5.20
2023-02-01T00:47:43.546Z,4.13
2023-02-01T00:50:46.034Z,4.43
2023-02-01T00:53:48.718Z,4.50
2023-02-01T00:56:51.177Z,5.00
2023-02-01T00:59:54.920Z,5.20
2023-02-01T01:02:57.323Z,4.67
2023-02-01T01:06:01.232Z,6.00
2023-02-01T01:09:07.286Z,4.97
2023-02-01T01:12:09.680Z,5.60
2023-02-01T01:15:12.198Z,5.40
2023-02-01T01:18:15.249Z,7.45
2023-02-01T01:21:19.417Z,7.47
2023-02-01T01:24:21.789Z,5.15
2023-02-01T01:27:26.103Z,7.20
2023-02-01T01:30:28.571Z,6.72
2023-02-01T01:33:30.940Z,6.10
2023-02-01T01:36:33.477Z,5.22
2023-02-01T01:39:35.864Z,5.43
2023-02-01T01:42:43.667Z,6.43
2023-02-01T01:45:51.799Z,7.28
2023-02-01T01:49:02.742Z,8.98
2023-02-01T01:52:07.094Z,8.50
2023-02-01T01:55:10.137Z,8.13
2023-02-01T01:58:27.268Z,10.23
2023-02-01T02:01:29.986Z,8.75
2023-02-01T02:04:34.907Z,7.17
2023-02-01T02:07:40.736Z,7.50
2023-02-01T02:11:02.365Z,11.88
2023-02-01T02:14:09.302Z,10.80
2023-02-01T02:17:26.105Z,9.45
2023-02-01T02:21:04.542Z,9.48
2023-02-01T02:24:28.012Z,8.20
2023-02-01T02:27:56.062Z,8.23
2023-02-01T02:31:29.855Z,8.00
2023-02-01T02:34:50.565Z,7.00
2023-02-01T02:38:09.413Z,6.73
2023-02-01T02:41:54.048Z,7.00
2023-02-01T02:45:28.770Z,7.03
2023-02-01T02:48:43.168Z,8.80
2023-02-01T02:52:37.097Z,8.38
2023-02-01T02:55:41.590Z,6.90
2023-02-01T02:59:05.746Z,7.82
2023-02-01T03:02:27.473Z,8.20
2023-02-01T03:05:35.971Z,8.43
2023-02-01T03:08:38.558Z,5.05
2023-02-01T03:12:05.007Z,3.67
2023-02-01T03:15:13.662Z,6.25
2023-02-01T03:18:42.014Z,5.60
2023-02-01T03:21:56.666Z,4.93
2023-02-01T03:25:23.985Z,5.18
2023-02-01T03:28:31.066Z,5.85
2023-02-01T03:31:34.164Z,4.15
2023-02-01T03:34:37.604Z,3.38
2023-02-01T03:37:40.339Z,9.52
2023-02-01T03:40:44.737Z,8.48
2023-02-01T03:44:10.100Z,15.93
2023-02-01T03:47:21.220Z,6.88
2023-02-01T03:50:29.358Z,6.38
2023-02-01T03:53:32.583Z,13.73
2023-02-01T03:56:38.780Z,8.02
2023-02-01T03:59:45.574Z,10.00
2023-02-01T04:02:48.179Z,9.48
2023-02-01T04:05:50.969Z,9.75
2023-02-01T04:08:54.171Z,10.60
2023-02-01T04:11:56.737Z,9.98
2023-02-01T04:14:59.304Z,8.20
2023-02-01T04:18:02.121Z,10.48
2023-02-01T04:21:05.244Z,11.73
2023-02-01T04:24:08.188Z,12.33
2023-02-01T04:27:10.626Z,18.52
2023-02-01T04:30:14.235Z,17.75
2023-02-01T04:33:16.585Z,16.50
2023-02-01T04:36:20.630Z,14.75
2023-02-01T04:39:23.140Z,13.88
2023-02-01T04:42:26.405Z,18.80
2023-02-01T04:45:28.865Z,16.33
2023-02-01T04:48:31.698Z,10.40
2023-02-01T04:51:34.396Z,5.00
2023-02-01T04:54:36.754Z,2.83
2023-02-01T04:57:41.196Z,2.40
2023-02-01T05:00:43.557Z,2.65
2023-02-01T05:03:45.947Z,5.35
2023-02-01T05:06:48.370Z,3.72
2023-02-01T05:09:51.195Z,3.65
2023-02-01T05:13:12.404Z,12.80
2023-02-01T05:16:15.443Z,7.27
2023-02-01T05:19:18.489Z,5.47
2023-02-01T05:22:20.952Z,3.90
2023-02-01T05:25:23.399Z,3.53
2023-02-01T05:28:26.102Z,4.10
2023-02-01T05:31:28.702Z,4.07
2023-02-01T05:34:31.122Z,5.18
2023-02-01T05:37:33.538Z,4.60
2023-02-01T05:40:35.903Z,7.60
2023-02-01T05:43:38.272Z,4.65
2023-02-01T05:46:40.691Z,7.93
2023-02-01T05:49:43.337Z,9.27
2023-02-01T05:52:45.884Z,8.13
2023-02-01T05:55:48.308Z,9.33
2023-02-01T05:58:50.951Z,6.28
2023-02-01T06:01:53.486Z,8.05
2023-02-01T06:04:55.912Z,9.57
2023-02-01T06:07:59.237Z,6.63
2023-02-01T06:11:03.943Z,4.65
2023-02-01T06:14:08.914Z,4.65
2023-02-01T06:17:11.336Z,3.07
2023-02-01T06:20:15.872Z,3.25
2023-02-01T06:23:18.456Z,3.95
2023-02-01T06:26:21.311Z,5.13
2023-02-01T06:29:23.932Z,4.88
2023-02-01T06:32:26.731Z,5.55
2023-02-01T06:35:29.180Z,6.00
2023-02-01T06:38:32.326Z,4.10
2023-02-01T06:41:35.751Z,5.97
2023-02-01T06:44:38.203Z,5.82
2023-02-01T06:47:40.550Z,5.67
2023-02-01T06:50:43.024Z,12.63
2023-02-01T06:53:46.202Z,13.10
2023-02-01T06:56:48.591Z,12.10
2023-02-01T06:59:51.222Z,11.95
2023-02-01T07:02:53.655Z,10.77
2023-02-01T07:05:59.519Z,19.08
2023-02-01T07:09:01.977Z,30.75
2023-02-01T07:12:04.576Z,24.00
2023-02-01T07:15:07.757Z,25.98
2023-02-01T07:18:10.186Z,22.13
2023-02-01T07:21:13.424Z,17.05
2023-02-01T07:24:15.838Z,19.92
2023-02-01T07:27:18.231Z,17.50
2023-02-01T07:30:21.242Z,15.00
2023-02-01T07:33:28.087Z,11.85
2023-02-01T07:36:30.664Z,12.43
2023-02-01T07:39:33.116Z,11.20
2023-02-01T07:42:35.642Z,13.02
2023-02-01T07:45:38.780Z,14.20
2023-02-01T07:48:41.220Z,14.90
2023-02-01T07:51:44.256Z,17.13
2023-02-01T07:54:46.647Z,18.88
2023-02-01T07:57:49.053Z,16.60
2023-02-01T08:01:10.096Z,14.88
2023-02-01T08:04:13.751Z,12.57
2023-02-01T08:07:16.384Z,12.57
2023-02-01T08:10:20.262Z,13.82
2023-02-01T08:13:22.752Z,13.85
2023-02-01T08:16:25.623Z,14.82
2023-02-01T08:19:28.137Z,9.73
2023-02-01T08:22:33.524Z,12.52
2023-02-01T08:25:37.166Z,10.20
2023-02-01T08:28:40.557Z,9.83
2023-02-01T08:31:45.348Z,22.30
2023-02-01T08:34:47.694Z,7.22
2023-02-01T08:37:51.465Z,5.57
2023-02-01T08:40:53.954Z,6.90
2023-02-01T08:43:57.486Z,7.82
2023-02-01T08:46:59.923Z,5.88
2023-02-01T08:50:02.454Z,9.93
2023-02-01T08:53:04.946Z,6.15
2023-02-01T08:56:08.000Z,6.75
2023-02-01T08:59:10.394Z,3.37
2023-02-01T09:02:14.653Z,2.03
2023-02-01T09:05:20.021Z,2.00
2023-02-01T09:08:22.560Z,1.65
2023-02-01T09:11:25.138Z,1.90
2023-02-01T09:14:27.546Z,2.13
2023-02-01T09:17:31.266Z,2.70
2023-02-01T09:20:33.724Z,2.10
2023-02-01T09:23:36.514Z,3.05
2023-02-01T09:26:39.106Z,2.72
2023-02-01T09:29:41.539Z,3.83
2023-02-01T09:32:43.922Z,3.65
2023-02-01T09:35:46.345Z,2.08
2023-02-01T09:38:52.812Z,2.10
2023-02-01T09:42:00.739Z,1.80
2023-02-01T09:45:17.871Z,1.73
2023-02-01T09:48:31.134Z,1.80
2023-02-01T09:51:38.504Z,1.77
2023-02-01T09:54:48.340Z,27.92
2023-02-01T09:57:57.449Z,3.42
2023-02-01T10:01:02.181Z,2.47
2023-02-01T10:04:12.533Z,9.55
2023-02-01T10:07:27.184Z,5.32
2023-02-01T10:10:40.484Z,3.30
2023-02-01T10:13:54.880Z,2.05
2023-02-01T10:17:13.329Z,1.90
2023-02-01T10:20:41.527Z,2.28
2023-02-01T10:23:47.040Z,2.00
2023-02-01T10:27:15.310Z,2.20
2023-02-01T10:30:24.195Z,2.00
2023-02-01T10:33:34.482Z,1.63
2023-02-01T10:36:48.861Z,1.35
2023-02-01T10:39:55.181Z,1.58
2023-02-01T10:43:02.913Z,1.20
2023-02-01T10:46:05.376Z,1.75
2023-02-01T10:49:19.422Z,2.40
2023-02-01T10:52:32.474Z,1.25
2023-02-01T10:55:41.757Z,2.00
2023-02-01T10:58:46.629Z,2.22
2023-02-01T11:01:50.426Z,1.80
2023-02-01T11:05:01.122Z,3.00
2023-02-01T11:08:03.768Z,2.75
2023-02-01T11:11:07.625Z,2.95
2023-02-01T11:14:16.252Z,2.35
2023-02-01T11:17:27.323Z,1.67
2023-02-01T11:20:32.574Z,1.95
2023-02-01T11:23:42.191Z,2.33
2023-02-01T11:26:45.215Z,5.13
2023-02-01T11:29:52.580Z,2.22
2023-02-01T11:32:55.281Z,4.15
2023-02-01T11:36:01.313Z,1.83
2023-02-01T11:39:15.484Z,1.58
2023-02-01T11:42:18.907Z,2.30
2023-02-01T11:45:32.746Z,2.25
2023-02-01T11:48:35.208Z,1.50
2023-02-01T11:52:08.486Z,1.48
2023-02-01T11:55:42.984Z,1.60
2023-02-01T11:59:16.334Z,1.30
2023-02-01T12:02:27.700Z,1.75
2023-02-01T12:05:40.205Z,1.20
2023-02-01T12:08:51.181Z,1.23
2023-02-01T12:12:18.041Z,1.60
2023-02-01T12:15:35.286Z,1.40
2023-02-01T12:19:01.837Z,1.25
2023-02-01T12:22:16.041Z,1.20
2023-02-01T12:25:30.354Z,5.80
2023-02-01T12:28:38.890Z,1.90
2023-02-01T12:32:02.501Z,1.73
2023-02-01T12:35:43.349Z,2.58
2023-02-01T12:39:02.696Z,1.60
2023-02-01T12:42:17.342Z,2.00
2023-02-01T12:45:31.545Z,2.47
2023-02-01T12:49:03.208Z,4.38
2023-02-01T12:52:12.147Z,2.15
2023-02-01T12:55:35.225Z,2.72
2023-02-01T12:58:49.261Z,2.40
2023-02-01T13:02:00.488Z,3.22
2023-02-01T13:05:32.640Z,2.33
2023-02-01T13:09:13.038Z,2.22
2023-02-01T13:12:21.279Z,1.13
2023-02-01T13:15:31.420Z,1.90
2023-02-01T13:18:38.779Z,1.40
2023-02-01T13:21:49.799Z,2.78
2023-02-01T13:24:57.988Z,1.83
2023-02-01T13:28:07.321Z,3.33
2023-02-01T13:31:18.622Z,3.78
2023-02-01T13:34:30.022Z,1.70
2023-02-01T13:38:06.463Z,1.30
2023-02-01T13:41:33.573Z,2.45
2023-02-01T13:44:43.897Z,1.42
2023-02-01T13:47:48.498Z,4.70
2023-02-01T13:50:55.105Z,5.30
2023-02-01T13:53:57.532Z,1.80
2023-02-01T13:57:02.135Z,3.65
2023-02-01T14:00:32.084Z,3.20
2023-02-01T14:03:46.127Z,5.80
2023-02-01T14:06:52.510Z,2.55
2023-02-01T14:09:54.950Z,2.83
2023-02-01T14:13:14.625Z,1.50
2023-02-01T14:16:17.779Z,2.60
2023-02-01T14:19:28.611Z,0.93
2023-02-01T14:22:35.505Z,1.45
2023-02-01T14:25:38.798Z,2.05
2023-02-01T14:28:45.781Z,1.75
2023-02-01T14:32:20.864Z,2.65
2023-02-01T14:35:28.095Z,4.07
2023-02-01T14:38:33.229Z,2.33
2023-02-01T14:41:36.609Z,4.17
2023-02-01T14:44:39.023Z,4.07
2023-02-01T14:47:41.737Z,3.92
2023-02-01T14:50:50.804Z,4.37
2023-02-01T14:53:53.296Z,3.05
2023-02-01T14:56:56.378Z,2.17
2023-02-01T15:00:28.237Z,4.93
2023-02-01T15:03:39.435Z,2.17
2023-02-01T15:06:44.707Z,2.30
2023-02-01T15:09:49.249Z,1.40
2023-02-01T15:12:51.700Z,0.83
2023-02-01T15:16:15.053Z,3.40
2023-02-01T15:19:17.524Z,2.08
2023-02-01T15:22:20.346Z,1.80
2023-02-01T15:25:31.474Z,1.70
2023-02-01T15:28:34.292Z,1.90
2023-02-01T15:31:41.780Z,2.08
2023-02-01T15:34:49.898Z,1.58
2023-02-01T15:37:53.048Z,0.98
2023-02-01T15:41:01.369Z,0.70
2023-02-01T15:44:12.767Z,0.87
2023-02-01T15:47:21.091Z,1.30
2023-02-01T15:50:25.374Z,3.20
2023-02-01T15:53:32.011Z,1.80
2023-02-01T15:56:38.130Z,1.80
2023-02-01T15:59:45.082Z,0.93
2023-02-01T16:03:24.477Z,2.17
2023-02-01T16:06:30.342Z,2.97
2023-02-01T16:09:55.343Z,2.53
2023-02-01T16:13:01.357Z,1.20
2023-02-01T16:16:08.905Z,1.70
2023-02-01T16:19:11.368Z,4.10
2023-02-01T16:22:13.877Z,2.00
2023-02-01T16:25:16.466Z,4.07
2023-02-01T16:28:19.024Z,6.53
2023-02-01T16:31:28.872Z,7.53
2023-02-01T16:34:31.832Z,12.93
2023-02-01T16:37:37.249Z,7.55
2023-02-01T16:40:44.398Z,5.90
2023-02-01T16:43:50.888Z,6.72
2023-02-01T16:46:53.350Z,31.97
2023-02-01T16:49:55.739Z,11.13
2023-02-01T16:52:58.126Z,4.78
2023-02-01T16:56:00.761Z,2.33
2023-02-01T16:59:03.407Z,6.47
2023-02-01T17:02:06.041Z,6.55
2023-02-01T17:05:09.557Z,5.32
2023-02-01T17:08:15.027Z,6.50
2023-02-01T17:11:18.692Z,7.43
2023-02-01T17:14:22.494Z,11.95
2023-02-01T17:17:38.532Z,8.07
2023-02-01T17:20:42.680Z,12.85
2023-02-01T17:23:46.350Z,9.80
2023-02-01T17:26:51.553Z,12.27
2023-02-01T17:29:57.138Z,10.10
2023-02-01T17:33:02.113Z,8.75
2023-02-01T17:36:13.185Z,10.57
2023-02-01T17:39:51.095Z,16.10
2023-02-01T17:42:57.568Z,12.10
2023-02-01T17:46:06.071Z,13.82
2023-02-01T17:49:08.625Z,10.37
2023-02-01T17:52:18.651Z,5.00
2023-02-01T17:55:24.358Z,1.17
2023-02-01T17:58:30.345Z,1.40
2023-02-01T18:01:33.134Z,3.67
2023-02-01T18:04:37.721Z,4.22
2023-02-01T18:07:40.093Z,3.33
2023-02-01T18:10:42.503Z,2.67
2023-02-01T18:13:45.413Z,2.42
2023-02-01T18:16:47.785Z,1.88
2023-02-01T18:19:50.518Z,2.70
2023-02-01T18:22:53.590Z,2.00
2023-02-01T18:25:56.245Z,2.58
2023-02-01T18:28:58.585Z,1.63
2023-02-01T18:32:02.590Z,1.25
2023-02-01T18:35:22.068Z,1.30
2023-02-01T18:38:25.043Z,0.93
2023-02-01T18:41:27.674Z,1.75
2023-02-01T18:44:30.361Z,0.75
2023-02-01T18:47:32.973Z,1.35
2023-02-01T18:50:39.940Z,0.73
2023-02-01T18:53:42.297Z,0.70
2023-02-01T18:56:44.741Z,0.57
2023-02-01T18:59:47.866Z,0.70
2023-02-01T19:02:50.722Z,0.60
2023-02-01T19:05:57.361Z,0.90
2023-02-01T19:09:00.149Z,0.70
2023-02-01T19:12:03.546Z,0.80
2023-02-01T19:15:12.791Z,0.90
2023-02-01T19:18:20.150Z,0.77
2023-02-01T19:21:22.802Z,0.90
2023-02-01T19:24:28.098Z,1.02
2023-02-01T19:27:30.777Z,1.08
2023-02-01T19:30:33.159Z,1.70
2023-02-01T19:33:36.296Z,1.52
2023-02-01T19:36:42.637Z,1.35
2023-02-01T19:39:45.881Z,1.58
2023-02-01T19:42:48.739Z,1.55
2023-02-01T19:45:53.522Z,2.05
2023-02-01T19:48:56.401Z,2.08
2023-02-01T19:51:59.297Z,2.50
2023-02-01T19:55:03.487Z,2.80
2023-02-01T19:58:05.965Z,2.45
2023-02-01T20:01:08.158Z,2.43
2023-02-01T20:04:12.456Z,2.10
2023-02-01T20:07:15.177Z,2.25
2023-02-01T20:10:17.907Z,3.63
2023-02-01T20:13:20.523Z,4.13
2023-02-01T20:16:23.691Z,4.40
2023-02-01T20:19:26.507Z,2.50
2023-02-01T20:22:29.203Z,1.80
2023-02-01T20:25:32.670Z,1.80
2023-02-01T20:28:35.272Z,1.75
2023-02-01T20:31:38.041Z,1.47
2023-02-01T20:34:40.361Z,1.30
2023-02-01T20:37:43.177Z,1.80
2023-02-01T20:40:45.987Z,1.40
2023-02-01T20:43:49.224Z,1.65
2023-02-01T20:46:51.904Z,2.10
2023-02-01T20:49:54.511Z,1.20
2023-02-01T20:52:57.172Z,2.30
2023-02-01T20:55:59.826Z,4.40
2023-02-01T20:59:03.392Z,5.40
2023-02-01T21:02:06.632Z,2.50
2023-02-01T21:05:09.574Z,2.63
2023-02-01T21:08:13.232Z,2.42
2023-02-01T21:11:18.503Z,2.30
2023-02-01T21:14:21.137Z,3.05
2023-02-01T21:17:24.694Z,2.45
2023-02-01T21:20:28.364Z,2.17
2023-02-01T21:23:30.777Z,1.93
2023-02-01T21:26:41.011Z,2.38
2023-02-01T21:29:43.455Z,4.55
2023-02-01T21:32:45.861Z,4.37
2023-02-01T21:35:51.795Z,4.38
2023-02-01T21:39:03.492Z,4.40
2023-02-01T21:42:16.611Z,3.30
2023-02-01T21:45:19.181Z,3.38
2023-02-01T21:48:21.604Z,3.05
2023-02-01T21:51:24.352Z,2.60
2023-02-01T21:54:26.731Z,2.60
2023-02-01T21:57:29.261Z,5.25
2023-02-01T22:00:31.647Z,9.10
2023-02-01T22:03:34.160Z,9.07
2023-02-01T22:06:39.630Z,10.82
2023-02-01T22:09:42.263Z,13.13
2023-02-01T22:12:44.973Z,12.55
2023-02-01T22:15:47.316Z,11.15
2023-02-01T22:18:51.609Z,12.02
2023-02-01T22:21:53.962Z,11.43
2023-02-01T22:24:56.419Z,9.20
2023-02-01T22:28:32.548Z,8.63
2023-02-01T22:31:22.030Z,6.38
2023-02-01T22:34:28.068Z,8.23
2023-02-01T22:37:30.399Z,5.38
2023-02-01T22:40:32.912Z,14.63
2023-02-01T22:43:35.899Z,10.00
2023-02-01T22:46:38.353Z,7.38
2023-02-01T22:49:40.746Z,6.07
2023-02-01T22:52:43.315Z,5.80
2023-02-01T22:55:45.845Z,5.90
2023-02-01T22:58:48.468Z,7.10
2023-02-01T23:01:50.838Z,9.02
2023-02-01T23:04:53.296Z,7.90
2023-02-01T23:07:55.641Z,6.88
2023-02-01T23:11:07.181Z,5.38
2023-02-01T23:14:11.880Z,5.15
2023-02-01T23:17:14.237Z,4.93
2023-02-01T23:20:18.488Z,4.60
2023-02-01T23:23:21.080Z,3.65
2023-02-01T23:26:25.919Z,3.00
2023-02-01T23:29:28.370Z,3.15
2023-02-01T23:32:30.969Z,2.88
2023-02-01T23:35:33.415Z,2.87
2023-02-01T23:38:36.385Z,3.10
2023-02-01T23:41:38.809Z,1.98
2023-02-01T23:44:41.202Z,1.88
2023-02-01T23:47:43.613Z,2.67
2023-02-01T23:50:45.994Z,2.80
2023-02-01T23:53:48.689Z,2.70
2023-02-01T23:56:51.184Z,2.43
2023-02-01T23:59:53.529Z,3.33
